sensor_id;sensor_type;location;lat;lon;timestamp;pressure;altitude;pressure_sealevel;temperature;humidity
72677;BME280;60755;51.374;10.662;2023-10-08T00:00:32;97572.22;;;17.49;82.96
72677;BME280;60755;51.374;10.662;2023-10-08T00:03:09;97579.41;;;17.43;83.68
72677;BME280;60755;51.374;10.662;2023-10-08T00:05:37;97579.69;;;17.37;85.37
72677;BME280;60755;51.374;10.662;2023-10-08T00:08:05;97563.22;;;17.29;85.82
72677;BME280;60755;51.374;10.662;2023-10-08T00:10:34;97578.13;;;17.20;86.69
72677;BME280;60755;51.374;10.662;2023-10-08T00:13:05;97583.47;;;17.10;88.13
72677;BME280;60755;51.374;10.662;2023-10-08T00:15:35;97582.41;;;17.01;88.73
72677;BME280;60755;51.374;10.662;2023-10-08T00:18:03;97575.50;;;16.95;89.11
72677;BME280;60755;51.374;10.662;2023-10-08T00:20:32;97572.56;;;16.91;89.42
72677;BME280;60755;51.374;10.662;2023-10-08T00:23:09;97570.72;;;16.92;89.85
72677;BME280;60755;51.374;10.662;2023-10-08T00:25:36;97576.03;;;16.82;90.96
72677;BME280;60755;51.374;10.662;2023-10-08T00:28:08;97570.75;;;16.76;91.89
72677;BME280;60755;51.374;10.662;2023-10-08T00:30:39;97582.91;;;16.67;92.38
72677;BME280;60755;51.374;10.662;2023-10-08T00:33:07;97586.06;;;16.59;93.77
72677;BME280;60755;51.374;10.662;2023-10-08T00:35:38;97578.13;;;16.54;94.65
72677;BME280;60755;51.374;10.662;2023-10-08T00:38:07;97572.81;;;16.54;95.26
72677;BME280;60755;51.374;10.662;2023-10-08T00:40:41;97584.75;;;16.41;95.98
72677;BME280;60755;51.374;10.662;2023-10-08T00:43:30;97579.69;;;16.40;97.01
72677;BME280;60755;51.374;10.662;2023-10-08T00:45:59;97586.56;;;16.36;97.62
72677;BME280;60755;51.374;10.662;2023-10-08T00:48:27;97586.84;;;16.29;98.10
72677;BME280;60755;51.374;10.662;2023-10-08T00:51:01;97595.06;;;16.28;98.09
72677;BME280;60755;51.374;10.662;2023-10-08T00:53:42;97588.16;;;16.27;97.63
72677;BME280;60755;51.374;10.662;2023-10-08T00:56:09;97606.44;;;16.28;97.46
72677;BME280;60755;51.374;10.662;2023-10-08T00:58:46;97599.31;;;16.23;98.49
72677;BME280;60755;51.374;10.662;2023-10-08T01:01:18;97577.53;;;16.27;98.44
72677;BME280;60755;51.374;10.662;2023-10-08T01:03:48;97596.13;;;16.32;97.19
72677;BME280;60755;51.374;10.662;2023-10-08T01:06:16;97592.16;;;16.29;98.17
72677;BME280;60755;51.374;10.662;2023-10-08T01:08:46;97587.13;;;16.33;97.63
72677;BME280;60755;51.374;10.662;2023-10-08T01:11:19;97586.59;;;16.31;98.57
72677;BME280;60755;51.374;10.662;2023-10-08T01:13:49;97597.47;;;16.29;97.78
72677;BME280;60755;51.374;10.662;2023-10-08T01:16:16;97600.13;;;16.29;98.12
72677;BME280;60755;51.374;10.662;2023-10-08T01:18:44;97609.66;;;16.30;97.07
72677;BME280;60755;51.374;10.662;2023-10-08T01:21:17;97605.69;;;16.33;97.40
72677;BME280;60755;51.374;10.662;2023-10-08T01:24:02;97574.66;;;16.33;97.28
72677;BME280;60755;51.374;10.662;2023-10-08T01:26:32;97589.75;;;16.33;96.86
72677;BME280;60755;51.374;10.662;2023-10-08T01:29:00;97595.09;;;16.38;97.31
72677;BME280;60755;51.374;10.662;2023-10-08T01:31:33;97600.13;;;16.29;97.61
72677;BME280;60755;51.374;10.662;2023-10-08T01:34:00;97579.44;;;16.36;97.80
72677;BME280;60755;51.374;10.662;2023-10-08T01:36:30;97600.66;;;16.31;97.91
72677;BME280;60755;51.374;10.662;2023-10-08T01:38:58;97582.31;;;16.25;98.78
72677;BME280;60755;51.374;10.662;2023-10-08T01:41:29;97591.63;;;16.32;96.80
72677;BME280;60755;51.374;10.662;2023-10-08T01:43:56;97600.13;;;16.29;97.58
72677;BME280;60755;51.374;10.662;2023-10-08T01:46:25;97608.88;;;16.30;97.08
72677;BME280;60755;51.374;10.662;2023-10-08T01:48:53;97611.22;;;16.26;97.76
72677;BME280;60755;51.374;10.662;2023-10-08T01:51:26;97596.94;;;16.32;97.53
72677;BME280;60755;51.374;10.662;2023-10-08T01:54:03;97602.50;;;16.31;97.78
72677;BME280;60755;51.374;10.662;2023-10-08T01:56:41;97614.69;;;16.27;97.58
72677;BME280;60755;51.374;10.662;2023-10-08T01:59:09;97617.34;;;16.21;98.23
72677;BME280;60755;51.374;10.662;2023-10-08T02:01:40;97614.16;;;16.30;97.92
72677;BME280;60755;51.374;10.662;2023-10-08T02:04:08;97624.47;;;16.16;98.19
72677;BME280;60755;51.374;10.662;2023-10-08T02:06:35;97639.59;;;16.26;98.11
72677;BME280;60755;51.374;10.662;2023-10-08T02:09:03;97644.34;;;16.18;98.95
72677;BME280;60755;51.374;10.662;2023-10-08T02:11:48;97648.06;;;16.17;98.96
72677;BME280;60755;51.374;10.662;2023-10-08T02:14:17;97649.91;;;16.12;99.79
72677;BME280;60755;51.374;10.662;2023-10-08T02:16:44;97643.81;;;16.16;100.00
72677;BME280;60755;51.374;10.662;2023-10-08T02:19:12;97627.38;;;16.14;99.96
72677;BME280;60755;51.374;10.662;2023-10-08T02:21:40;97635.34;;;16.19;99.33
72677;BME280;60755;51.374;10.662;2023-10-08T02:24:12;97648.06;;;16.17;100.00
72677;BME280;60755;51.374;10.662;2023-10-08T02:26:40;97640.66;;;16.14;99.77
72677;BME280;60755;51.374;10.662;2023-10-08T02:29:10;97632.69;;;16.14;100.00
72677;BME280;60755;51.374;10.662;2023-10-08T02:31:37;97623.16;;;16.13;100.00
72677;BME280;60755;51.374;10.662;2023-10-08T02:34:06;97621.28;;;16.19;99.85
72677;BME280;60755;51.374;10.662;2023-10-08T02:36:35;97625.78;;;16.08;100.00
72677;BME280;60755;51.374;10.662;2023-10-08T02:39:03;97628.44;;;16.13;100.00
72677;BME280;60755;51.374;10.662;2023-10-08T02:41:39;97633.47;;;16.10;100.00
72677;BME280;60755;51.374;10.662;2023-10-08T02:44:09;97638.75;;;16.10;100.00
72677;BME280;60755;51.374;10.662;2023-10-08T02:46:40;97639.84;;;16.19;100.00
72677;BME280;60755;51.374;10.662;2023-10-08T02:49:08;97642.47;;;16.09;100.00
72677;BME280;60755;51.374;10.662;2023-10-08T02:51:39;97674.59;;;16.12;100.00
72677;BME280;60755;51.374;10.662;2023-10-08T02:54:08;97681.97;;;16.05;100.00
72677;BME280;60755;51.374;10.662;2023-10-08T02:56:43;97704.75;;;16.01;100.00
72677;BME280;60755;51.374;10.662;2023-10-08T02:59:13;97711.63;;;15.97;100.00
72677;BME280;60755;51.374;10.662;2023-10-08T03:01:41;97712.59;;;15.81;100.00
72677;BME280;60755;51.374;10.662;2023-10-08T03:04:09;97731.97;;;15.49;100.00
72677;BME280;60755;51.374;10.662;2023-10-08T03:06:44;97728.28;;;15.23;100.00
72677;BME280;60755;51.374;10.662;2023-10-08T03:09:16;97726.88;;;15.10;100.00
72677;BME280;60755;51.374;10.662;2023-10-08T03:11:48;97723.91;;;15.07;100.00
72677;BME280;60755;51.374;10.662;2023-10-08T03:14:18;97706.63;;;14.99;100.00
72677;BME280;60755;51.374;10.662;2023-10-08T03:16:49;97706.88;;;14.93;100.00
72677;BME280;60755;51.374;10.662;2023-10-08T03:19:18;97713.03;;;14.49;100.00
72677;BME280;60755;51.374;10.662;2023-10-08T03:21:46;97707.84;;;14.16;100.00
72677;BME280;60755;51.374;10.662;2023-10-08T03:24:21;97662.59;;;13.90;100.00
72677;BME280;60755;51.374;10.662;2023-10-08T03:27:04;97647.84;;;13.94;100.00
72677;BME280;60755;51.374;10.662;2023-10-08T03:29:47;97690.44;;;13.59;100.00
72677;BME280;60755;51.374;10.662;2023-10-08T03:32:15;97694.84;;;13.54;100.00
72677;BME280;60755;51.374;10.662;2023-10-08T03:34:44;97721.75;;;13.34;100.00
72677;BME280;60755;51.374;10.662;2023-10-08T03:37:13;97725.91;;;13.30;100.00
72677;BME280;60755;51.374;10.662;2023-10-08T03:39:46;97723.47;;;13.11;100.00
72677;BME280;60755;51.374;10.662;2023-10-08T03:42:26;97717.38;;;13.11;100.00
72677;BME280;60755;51.374;10.662;2023-10-08T03:45:01;97705.25;;;13.10;100.00
72677;BME280;60755;51.374;10.662;2023-10-08T03:47:37;97689.72;;;13.13;100.00
72677;BME280;60755;51.374;10.662;2023-10-08T03:50:06;97712.66;;;12.96;100.00
72677;BME280;60755;51.374;10.662;2023-10-08T03:52:35;97726.88;;;12.95;100.00
72677;BME280;60755;51.374;10.662;2023-10-08T03:55:05;97719.78;;;12.96;100.00
72677;BME280;60755;51.374;10.662;2023-10-08T03:57:52;97723.72;;;13.10;100.00
72677;BME280;60755;51.374;10.662;2023-10-08T04:00:31;97703.44;;;12.99;100.00
72677;BME280;60755;51.374;10.662;2023-10-08T04:02:58;97696.97;;;12.89;100.00
72677;BME280;60755;51.374;10.662;2023-10-08T04:05:34;97697.22;;;12.88;100.00
72677;BME280;60755;51.374;10.662;2023-10-08T04:08:10;97679.47;;;12.83;100.00
72677;BME280;60755;51.374;10.662;2023-10-08T04:10:47;97676.44;;;12.92;100.00
72677;BME280;60755;51.374;10.662;2023-10-08T04:13:31;97710.00;;;12.96;100.00
72677;BME280;60755;51.374;10.662;2023-10-08T04:15:59;97711.94;;;12.84;100.00
72677;BME280;60755;51.374;10.662;2023-10-08T04:18:30;97714.63;;;12.89;100.00
72677;BME280;60755;51.374;10.662;2023-10-08T04:20:58;97735.09;;;12.82;100.00
72677;BME280;60755;51.374;10.662;2023-10-08T04:23:30;97733.81;;;12.84;100.00
72677;BME280;60755;51.374;10.662;2023-10-08T04:25:58;97738.63;;;12.87;100.00
72677;BME280;60755;51.374;10.662;2023-10-08T04:28:25;97746.16;;;12.96;100.00
72677;BME280;60755;51.374;10.662;2023-10-08T04:31:01;97764.16;;;12.70;100.00
72677;BME280;60755;51.374;10.662;2023-10-08T04:33:42;97776.19;;;12.66;100.00
72677;BME280;60755;51.374;10.662;2023-10-08T04:36:10;97774.69;;;12.70;100.00
72677;BME280;60755;51.374;10.662;2023-10-08T04:38:43;97785.69;;;12.67;100.00
72677;BME280;60755;51.374;10.662;2023-10-08T04:41:14;97768.63;;;12.70;100.00
72677;BME280;60755;51.374;10.662;2023-10-08T04:43:45;97779.88;;;12.65;100.00
72677;BME280;60755;51.374;10.662;2023-10-08T04:46:16;97778.09;;;12.42;100.00
72677;BME280;60755;51.374;10.662;2023-10-08T04:49:00;97804.25;;;12.32;100.00
72677;BME280;60755;51.374;10.662;2023-10-08T04:51:31;97797.13;;;12.32;100.00
72677;BME280;60755;51.374;10.662;2023-10-08T04:54:06;97796.56;;;12.30;100.00
72677;BME280;60755;51.374;10.662;2023-10-08T04:56:33;97806.56;;;12.28;100.00
72677;BME280;60755;51.374;10.662;2023-10-08T04:59:00;97805.38;;;12.24;100.00
72677;BME280;60755;51.374;10.662;2023-10-08T05:01:32;97808.84;;;12.13;100.00
72677;BME280;60755;51.374;10.662;2023-10-08T05:04:06;97811.38;;;12.08;100.00
72677;BME280;60755;51.374;10.662;2023-10-08T05:06:49;97807.25;;;12.00;100.00
72677;BME280;60755;51.374;10.662;2023-10-08T05:09:44;97815.03;;;12.07;100.00
72677;BME280;60755;51.374;10.662;2023-10-08T05:12:19;97824.09;;;12.11;100.00
72677;BME280;60755;51.374;10.662;2023-10-08T05:15:04;97824.88;;;12.00;100.00
72677;BME280;60755;51.374;10.662;2023-10-08T05:18:01;97828.19;;;12.07;100.00
72677;BME280;60755;51.374;10.662;2023-10-08T05:20:40;97846.19;;;12.10;100.00
72677;BME280;60755;51.374;10.662;2023-10-08T05:23:12;97842.41;;;12.06;100.00
72677;BME280;60755;51.374;10.662;2023-10-08T05:26:07;97850.66;;;11.98;100.00
72677;BME280;60755;51.374;10.662;2023-10-08T05:28:36;97856.94;;;11.85;100.00
72677;BME280;60755;51.374;10.662;2023-10-08T05:31:14;97850.59;;;11.74;100.00
72677;BME280;60755;51.374;10.662;2023-10-08T05:34:03;97857.47;;;11.75;100.00
72677;BME280;60755;51.374;10.662;2023-10-08T05:36:44;97855.03;;;11.62;100.00
72677;BME280;60755;51.374;10.662;2023-10-08T05:39:16;97857.41;;;11.52;100.00
72677;BME280;60755;51.374;10.662;2023-10-08T05:41:55;97858.56;;;11.56;100.00
72677;BME280;60755;51.374;10.662;2023-10-08T05:44:39;97855.34;;;11.54;100.00
72677;BME280;60755;51.374;10.662;2023-10-08T05:47:12;97851.25;;;11.58;100.00
72677;BME280;60755;51.374;10.662;2023-10-08T05:50:05;97854.59;;;11.65;100.00
72677;BME280;60755;51.374;10.662;2023-10-08T05:52:50;97855.81;;;11.51;100.00
72677;BME280;60755;51.374;10.662;2023-10-08T05:55:31;97861.06;;;11.51;100.00
72677;BME280;60755;51.374;10.662;2023-10-08T05:58:02;97861.31;;;11.49;100.00
72677;BME280;60755;51.374;10.662;2023-10-08T06:00:40;97867.22;;;11.45;100.00
72677;BME280;60755;51.374;10.662;2023-10-08T06:03:13;97871.56;;;11.39;100.00
72677;BME280;60755;51.374;10.662;2023-10-08T06:06:04;97888.41;;;11.50;100.00
72677;BME280;60755;51.374;10.662;2023-10-08T06:08:45;97894.84;;;11.06;100.00
72677;BME280;60755;51.374;10.662;2023-10-08T06:11:33;97902.09;;;11.10;100.00
72677;BME280;60755;51.374;10.662;2023-10-08T06:14:13;97904.66;;;10.99;100.00
72677;BME280;60755;51.374;10.662;2023-10-08T06:16:40;97907.06;;;10.82;100.00
72677;BME280;60755;51.374;10.662;2023-10-08T06:19:13;97912.78;;;10.79;100.00
72677;BME280;60755;51.374;10.662;2023-10-08T06:21:42;97929.72;;;10.83;100.00
72677;BME280;60755;51.374;10.662;2023-10-08T06:24:11;97933.97;;;10.84;100.00
72677;BME280;60755;51.374;10.662;2023-10-08T06:26:42;97943.88;;;10.82;100.00
72677;BME280;60755;51.374;10.662;2023-10-08T06:29:14;97948.25;;;10.70;100.00
72677;BME280;60755;51.374;10.662;2023-10-08T06:31:54;97969.09;;;10.46;100.00
72677;BME280;60755;51.374;10.662;2023-10-08T06:34:22;97968.50;;;10.44;100.00
72677;BME280;60755;51.374;10.662;2023-10-08T06:36:57;97990.16;;;10.40;100.00
72677;BME280;60755;51.374;10.662;2023-10-08T06:39:25;97998.09;;;10.33;100.00
72677;BME280;60755;51.374;10.662;2023-10-08T06:41:59;98003.06;;;10.09;100.00
72677;BME280;60755;51.374;10.662;2023-10-08T06:44:30;98022.41;;;10.22;100.00
72677;BME280;60755;51.374;10.662;2023-10-08T06:46:57;98018.84;;;10.09;100.00
72677;BME280;60755;51.374;10.662;2023-10-08T06:49:24;98023.78;;;9.55;100.00
72677;BME280;60755;51.374;10.662;2023-10-08T06:51:51;98037.97;;;9.34;100.00
72677;BME280;60755;51.374;10.662;2023-10-08T06:54:21;98038.88;;;8.94;96.56
72677;BME280;60755;51.374;10.662;2023-10-08T06:56:49;98044.91;;;8.82;98.16
72677;BME280;60755;51.374;10.662;2023-10-08T06:59:19;98037.91;;;8.76;96.77
72677;BME280;60755;51.374;10.662;2023-10-08T07:01:48;98048.56;;;8.61;93.11
72677;BME280;60755;51.374;10.662;2023-10-08T07:04:18;98047.75;;;8.40;87.20
72677;BME280;60755;51.374;10.662;2023-10-08T07:06:47;98045.91;;;8.28;89.43
72677;BME280;60755;51.374;10.662;2023-10-08T07:09:16;98047.31;;;8.30;90.88
72677;BME280;60755;51.374;10.662;2023-10-08T07:11:56;98051.34;;;8.26;90.42
72677;BME280;60755;51.374;10.662;2023-10-08T07:14:25;98056.81;;;8.38;90.30
72677;BME280;60755;51.374;10.662;2023-10-08T07:16:53;98075.56;;;8.41;94.21
72677;BME280;60755;51.374;10.662;2023-10-08T07:19:24;98067.50;;;8.56;93.09
72677;BME280;60755;51.374;10.662;2023-10-08T07:21:59;98060.66;;;8.82;91.53
72677;BME280;60755;51.374;10.662;2023-10-08T07:24:29;98049.34;;;9.01;92.51
72677;BME280;60755;51.374;10.662;2023-10-08T07:27:02;98056.41;;;9.01;84.56
72677;BME280;60755;51.374;10.662;2023-10-08T07:29:35;98064.88;;;9.03;86.02
72677;BME280;60755;51.374;10.662;2023-10-08T07:32:02;98077.19;;;8.89;82.12
72677;BME280;60755;51.374;10.662;2023-10-08T07:34:35;98081.81;;;8.54;79.91
72677;BME280;60755;51.374;10.662;2023-10-08T07:37:03;98078.41;;;8.66;82.77
72677;BME280;60755;51.374;10.662;2023-10-08T07:39:32;98064.50;;;8.53;80.26
72677;BME280;60755;51.374;10.662;2023-10-08T07:42:04;98071.53;;;8.46;81.45
72677;BME280;60755;51.374;10.662;2023-10-08T07:44:33;98077.97;;;8.50;82.09
72677;BME280;60755;51.374;10.662;2023-10-08T07:47:02;98090.50;;;8.61;83.93
72677;BME280;60755;51.374;10.662;2023-10-08T07:49:36;98097.53;;;8.54;83.26
72677;BME280;60755;51.374;10.662;2023-10-08T07:52:03;98109.03;;;8.53;82.75
72677;BME280;60755;51.374;10.662;2023-10-08T07:54:31;98121.16;;;8.67;84.33
72677;BME280;60755;51.374;10.662;2023-10-08T07:57:00;98138.50;;;8.75;83.15
72677;BME280;60755;51.374;10.662;2023-10-08T07:59:37;98126.56;;;9.18;91.77
72677;BME280;60755;51.374;10.662;2023-10-08T08:02:08;98142.09;;;9.33;90.13
72677;BME280;60755;51.374;10.662;2023-10-08T08:04:38;98152.38;;;9.41;85.84
72677;BME280;60755;51.374;10.662;2023-10-08T08:07:05;98150.13;;;9.38;88.53
72677;BME280;60755;51.374;10.662;2023-10-08T08:09:33;98158.22;;;9.43;80.71
72677;BME280;60755;51.374;10.662;2023-10-08T08:12:05;98170.31;;;9.58;82.31
72677;BME280;60755;51.374;10.662;2023-10-08T08:14:38;98162.00;;;9.67;86.02
72677;BME280;60755;51.374;10.662;2023-10-08T08:17:07;98154.69;;;9.89;88.56
72677;BME280;60755;51.374;10.662;2023-10-08T08:19:40;98165.41;;;9.81;90.99
72677;BME280;60755;51.374;10.662;2023-10-08T08:22:07;98162.91;;;9.99;91.36
72677;BME280;60755;51.374;10.662;2023-10-08T08:24:36;98153.78;;;10.08;87.28
72677;BME280;60755;51.374;10.662;2023-10-08T08:27:03;98155.56;;;10.28;93.08
72677;BME280;60755;51.374;10.662;2023-10-08T08:29:38;98151.44;;;10.45;93.69
72677;BME280;60755;51.374;10.662;2023-10-08T08:32:11;98150.41;;;10.46;90.64
72677;BME280;60755;51.374;10.662;2023-10-08T08:34:41;98151.56;;;10.57;88.24
72677;BME280;60755;51.374;10.662;2023-10-08T08:37:10;98147.56;;;10.79;88.08
72677;BME280;60755;51.374;10.662;2023-10-08T08:39:38;98143.44;;;10.90;86.78
72677;BME280;60755;51.374;10.662;2023-10-08T08:42:07;98142.44;;;11.16;86.03
72677;BME280;60755;51.374;10.662;2023-10-08T08:44:38;98148.75;;;11.33;86.61
72677;BME280;60755;51.374;10.662;2023-10-08T08:47:12;98161.13;;;11.33;85.39
72677;BME280;60755;51.374;10.662;2023-10-08T08:49:43;98160.69;;;11.54;86.99
72677;BME280;60755;51.374;10.662;2023-10-08T08:52:11;98165.75;;;11.56;83.82
72677;BME280;60755;51.374;10.662;2023-10-08T08:54:39;98166.34;;;11.58;82.69
72677;BME280;60755;51.374;10.662;2023-10-08T08:57:10;98174.19;;;11.64;81.55
72677;BME280;60755;51.374;10.662;2023-10-08T08:59:44;98184.59;;;11.53;78.32
72677;BME280;60755;51.374;10.662;2023-10-08T09:02:16;98175.56;;;11.67;79.95
72677;BME280;60755;51.374;10.662;2023-10-08T09:04:44;98156.09;;;11.68;77.97
72677;BME280;60755;51.374;10.662;2023-10-08T09:07:13;98156.97;;;11.62;76.75
72677;BME280;60755;51.374;10.662;2023-10-08T09:09:40;98167.88;;;11.47;83.69
72677;BME280;60755;51.374;10.662;2023-10-08T09:12:10;98161.69;;;11.35;83.67
72677;BME280;60755;51.374;10.662;2023-10-08T09:14:38;98157.19;;;11.78;82.15
72677;BME280;60755;51.374;10.662;2023-10-08T09:17:06;98156.53;;;11.90;77.20
72677;BME280;60755;51.374;10.662;2023-10-08T09:19:36;98166.19;;;11.96;81.20
72677;BME280;60755;51.374;10.662;2023-10-08T09:22:04;98174.22;;;11.83;77.25
72677;BME280;60755;51.374;10.662;2023-10-08T09:24:32;98182.63;;;12.10;79.98
72677;BME280;60755;51.374;10.662;2023-10-08T09:27:03;98190.56;;;11.66;80.30
72677;BME280;60755;51.374;10.662;2023-10-08T09:29:30;98183.28;;;12.05;80.58
72677;BME280;60755;51.374;10.662;2023-10-08T09:31:58;98201.88;;;12.10;78.23
72677;BME280;60755;51.374;10.662;2023-10-08T09:34:29;98190.31;;;12.29;79.00
72677;BME280;60755;51.374;10.662;2023-10-08T09:36:58;98194.66;;;11.87;79.23
72677;BME280;60755;51.374;10.662;2023-10-08T09:39:26;98194.72;;;11.99;82.34
72677;BME280;60755;51.374;10.662;2023-10-08T09:41:57;98191.84;;;12.19;82.96
72677;BME280;60755;51.374;10.662;2023-10-08T09:44:24;98189.81;;;12.51;81.72
72677;BME280;60755;51.374;10.662;2023-10-08T09:46:53;98197.28;;;12.54;82.17
72677;BME280;60755;51.374;10.662;2023-10-08T09:49:27;98216.09;;;12.57;80.84
72677;BME280;60755;51.374;10.662;2023-10-08T09:52:01;98211.69;;;12.70;80.28
72677;BME280;60755;51.374;10.662;2023-10-08T09:54:31;98219.69;;;12.63;81.29
72677;BME280;60755;51.374;10.662;2023-10-08T09:56:59;98218.72;;;12.57;84.05
72677;BME280;60755;51.374;10.662;2023-10-08T09:59:29;98221.22;;;12.82;82.25
72677;BME280;60755;51.374;10.662;2023-10-08T10:01:58;98215.69;;;13.02;78.43
72677;BME280;60755;51.374;10.662;2023-10-08T10:04:26;98219.44;;;13.25;78.95
72677;BME280;60755;51.374;10.662;2023-10-08T10:06:57;98231.03;;;13.35;78.73
72677;BME280;60755;51.374;10.662;2023-10-08T10:09:26;98236.66;;;12.67;81.29
72677;BME280;60755;51.374;10.662;2023-10-08T10:11:54;98231.44;;;13.09;79.86
72677;BME280;60755;51.374;10.662;2023-10-08T10:14:23;98237.50;;;13.39;78.63
72677;BME280;60755;51.374;10.662;2023-10-08T10:17:15;98237.75;;;13.73;77.27
72677;BME280;60755;51.374;10.662;2023-10-08T10:19:44;98252.53;;;13.97;77.20
72677;BME280;60755;51.374;10.662;2023-10-08T10:22:14;98252.19;;;14.06;74.95
72677;BME280;60755;51.374;10.662;2023-10-08T10:24:43;98239.75;;;14.18;75.89
72677;BME280;60755;51.374;10.662;2023-10-08T10:27:12;98247.69;;;14.30;73.39
72677;BME280;60755;51.374;10.662;2023-10-08T10:29:41;98253.81;;;14.07;73.85
72677;BME280;60755;51.374;10.662;2023-10-08T10:32:11;98253.69;;;13.90;74.53
72677;BME280;60755;51.374;10.662;2023-10-08T10:34:41;98255.09;;;13.81;75.23
72677;BME280;60755;51.374;10.662;2023-10-08T10:37:09;98249.19;;;13.79;75.41
72677;BME280;60755;51.374;10.662;2023-10-08T10:39:54;98244.06;;;13.72;76.70
72677;BME280;60755;51.374;10.662;2023-10-08T10:42:25;98255.97;;;13.39;78.90
72677;BME280;60755;51.374;10.662;2023-10-08T10:44:54;98250.94;;;13.73;77.25
72677;BME280;60755;51.374;10.662;2023-10-08T10:47:24;98240.69;;;14.00;73.95
72677;BME280;60755;51.374;10.662;2023-10-08T10:50:08;98232.66;;;13.83;75.08
72677;BME280;60755;51.374;10.662;2023-10-08T10:52:52;98242.16;;;13.37;78.54
72677;BME280;60755;51.374;10.662;2023-10-08T10:55:21;98239.63;;;13.31;78.09
72677;BME280;60755;51.374;10.662;2023-10-08T10:57:57;98226.16;;;13.09;76.67
72677;BME280;60755;51.374;10.662;2023-10-08T11:00:31;98221.84;;;12.84;80.75
72677;BME280;60755;51.374;10.662;2023-10-08T11:03:15;98220.25;;;12.65;83.57
72677;BME280;60755;51.374;10.662;2023-10-08T11:05:52;98227.44;;;12.76;81.96
72677;BME280;60755;51.374;10.662;2023-10-08T11:08:21;98232.50;;;12.89;81.46
72677;BME280;60755;51.374;10.662;2023-10-08T11:10:52;98241.69;;;12.99;78.08
72677;BME280;60755;51.374;10.662;2023-10-08T11:13:25;98253.88;;;13.00;79.70
72677;BME280;60755;51.374;10.662;2023-10-08T11:16:03;98232.97;;;12.98;77.77
72677;BME280;60755;51.374;10.662;2023-10-08T11:18:31;98232.88;;;12.93;79.43
72677;BME280;60755;51.374;10.662;2023-10-08T11:21:06;98235.53;;;12.75;74.95
72677;BME280;60755;51.374;10.662;2023-10-08T11:23:42;98246.09;;;12.45;79.48
72677;BME280;60755;51.374;10.662;2023-10-08T11:26:14;98253.75;;;12.46;79.23
72677;BME280;60755;51.374;10.662;2023-10-08T11:28:42;98267.88;;;12.33;79.33
72677;BME280;60755;51.374;10.662;2023-10-08T11:31:11;98294.41;;;12.39;81.47
72677;BME280;60755;51.374;10.662;2023-10-08T11:33:40;98290.53;;;12.59;79.48
72677;BME280;60755;51.374;10.662;2023-10-08T11:36:09;98277.03;;;12.68;78.21
72677;BME280;60755;51.374;10.662;2023-10-08T11:38:44;98267.91;;;12.82;78.38
72677;BME280;60755;51.374;10.662;2023-10-08T11:41:18;98272.84;;;13.08;79.68
72677;BME280;60755;51.374;10.662;2023-10-08T11:43:48;98252.53;;;13.09;76.71
72677;BME280;60755;51.374;10.662;2023-10-08T11:46:23;98227.47;;;13.30;75.90
72677;BME280;60755;51.374;10.662;2023-10-08T11:48:54;98211.28;;;13.26;73.07
72677;BME280;60755;51.374;10.662;2023-10-08T11:51:24;98220.88;;;13.09;75.29
72677;BME280;60755;51.374;10.662;2023-10-08T11:53:53;98241.78;;;13.22;75.46
72677;BME280;60755;51.374;10.662;2023-10-08T11:56:23;98247.84;;;13.11;71.50
72677;BME280;60755;51.374;10.662;2023-10-08T11:58:52;98271.09;;;13.32;77.58
72677;BME280;60755;51.374;10.662;2023-10-08T12:01:23;98248.16;;;13.44;74.60
72677;BME280;60755;51.374;10.662;2023-10-08T12:03:50;98238.72;;;13.37;76.37
72677;BME280;60755;51.374;10.662;2023-10-08T12:06:17;98213.44;;;13.18;76.59
72677;BME280;60755;51.374;10.662;2023-10-08T12:08:45;98207.28;;;13.24;75.49
72677;BME280;60755;51.374;10.662;2023-10-08T12:11:13;98214.06;;;13.01;76.10
72677;BME280;60755;51.374;10.662;2023-10-08T12:13:42;98213.38;;;12.94;78.35
72677;BME280;60755;51.374;10.662;2023-10-08T12:16:12;98221.03;;;12.84;76.66
72677;BME280;60755;51.374;10.662;2023-10-08T12:18:46;98214.91;;;12.72;78.60
72677;BME280;60755;51.374;10.662;2023-10-08T12:21:19;98200.72;;;12.54;78.28
72677;BME280;60755;51.374;10.662;2023-10-08T12:23:47;98203.19;;;12.38;80.44
72677;BME280;60755;51.374;10.662;2023-10-08T12:26:16;98198.31;;;12.35;81.46
72677;BME280;60755;51.374;10.662;2023-10-08T12:28:47;98194.41;;;12.55;80.31
72677;BME280;60755;51.374;10.662;2023-10-08T12:31:15;98206.09;;;12.48;81.16
72677;BME280;60755;51.374;10.662;2023-10-08T12:33:43;98208.94;;;12.46;76.13
72677;BME280;60755;51.374;10.662;2023-10-08T12:36:11;98232.03;;;12.32;78.37
72677;BME280;60755;51.374;10.662;2023-10-08T12:38:40;98243.06;;;12.59;77.71
72677;BME280;60755;51.374;10.662;2023-10-08T12:43:40;98233.63;;;12.52;75.74
72677;BME280;60755;51.374;10.662;2023-10-08T12:46:13;98225.06;;;12.38;74.74
72677;BME280;60755;51.374;10.662;2023-10-08T12:48:49;98227.56;;;12.33;74.31
72677;BME280;60755;51.374;10.662;2023-10-08T12:51:19;98222.34;;;12.26;72.58
72677;BME280;60755;51.374;10.662;2023-10-08T12:53:50;98209.84;;;12.22;76.59
72677;BME280;60755;51.374;10.662;2023-10-08T12:56:25;98202.06;;;12.27;76.47
72677;BME280;60755;51.374;10.662;2023-10-08T12:59:02;98189.13;;;12.25;75.92
72677;BME280;60755;51.374;10.662;2023-10-08T13:01:33;98183.44;;;12.28;73.32
72677;BME280;60755;51.374;10.662;2023-10-08T13:04:02;98190.44;;;12.16;75.93
72677;BME280;60755;51.374;10.662;2023-10-08T13:06:33;98185.84;;;12.30;73.39
72677;BME280;60755;51.374;10.662;2023-10-08T13:09:04;98178.78;;;12.42;74.07
72677;BME280;60755;51.374;10.662;2023-10-08T13:11:38;98188.31;;;12.25;74.75
72677;BME280;60755;51.374;10.662;2023-10-08T13:14:06;98194.25;;;12.39;71.59